• Join FlightAware (Why Join?)
  • Login
  • US Flag 
08:29PM EDT


 

Airport Tracker/Info


-or-


 

Live Flight TrackerFlight Track Log ✈ SWA472 ✈ 15-May-2014 ✈ KMCI - KBNA

Flight Track Log - Related Links

Times and Time Zones

All times are in EDT time to prevent confusion due to time zone crossing. See the SWA472 flight status page for this flight to view local times or setup timezone preferences in your user account.

Time Position Orientation Groundspeed Altitude Reporting Facility
EDT Latitude Longitude Course Direction KTS MPH feet Rate Location/Type
12:14PM 39.3167 -94.7000 38° Northeast 146 168 1,900  Level Kansas City TRACON
12:15PM 39.3500 -94.6667 38° Northeast 190 219 3,200 2,160 Climbing Kansas City TRACON
12:16PM 39.3697 -94.6467 38° Northeast 202 232 5,200 3,000 Climbing Kansas City Center
12:17PM 39.4064 -94.5881 51° Northeast 220 253 8,500 2,280 Climbing Kansas City Center
12:18PM 39.3725 -94.4936 115° Southeast 307 353 10,000 960 Climbing Kansas City Center
12:19PM 39.2892 -94.3839 134° Southeast 351 404 10,500 1,980 Climbing Kansas City Center
12:20PM 39.2189 -94.2906 134° Southeast 358 412 14,200 3,360 Climbing Kansas City Center
12:21PM 39.1450 -94.1933 134° Southeast 377 434 17,500 2,940 Climbing Kansas City Center
12:22PM 39.0917 -94.0744 120° Southeast 394 453 20,200 2,460 Climbing Kansas City Center
12:23PM 39.0828 -93.9256 94° East 415 478 22,700 2,220 Climbing Kansas City Center
12:24PM 39.0725 -93.7725 95° East 427 491 25,000 1,080 Climbing Kansas City Center
12:25PM 39.0594 -93.5850 95° East 437 503 25,000  Level Kansas City Center
12:26PM 39.0486 -93.4306 95° East 437 503 25,000 180 Level Kansas City Center
12:27PM 39.0397 -93.2800 94° East 437 503 25,400 1,260 Climbing Kansas City Center
12:28PM 39.0300 -93.1281 95° East 437 503 27,700 1,920 Climbing Kansas City Center
12:29PM 39.0175 -92.9683 96° East 438 504 29,400 1,620 Climbing Kansas City Center
12:30PM 38.9833 -92.7689 102° East 466 536 31,100 1,680 Climbing Kansas City Center
12:31PM 38.9269 -92.6189 116° Southeast 469 540 32,900 1,860 Climbing Kansas City Center
12:32PM 38.8575 -92.4831 123° Southeast 457 526 35,000 1,440 Climbing Kansas City Center
12:33PM 38.7875 -92.3458 123° Southeast 455 524 36,000 900 Climbing Kansas City Center
12:34PM 38.7172 -92.2058 123° Southeast 457 526 36,900 1,140 Climbing Kansas City Center
12:35PM 38.6453 -92.0686 124° Southeast 460 529 38,400 960 Climbing Kansas City Center
12:36PM 38.5753 -91.9347 124° Southeast 456 525 39,000 240 Climbing Kansas City Center
12:37PM 38.5078 -91.8019 123° Southeast 447 514 39,000  Level Kansas City Center
12:38PM 38.4253 -91.6433 124° Southeast 447 514 39,000  Level Kansas City Center
12:39PM 38.3561 -91.5125 124° Southeast 446 513 39,000  Level Kansas City Center
12:40PM 38.2881 -91.3833 124° Southeast 445 512 39,000  Level Kansas City Center
12:41PM 38.2181 -91.2508 124° Southeast 447 514 39,000  Level Kansas City Center
12:42PM 38.1472 -91.1158 124° Southeast 447 514 39,000  Level Kansas City Center
12:43PM 38.0800 -90.9906 124° Southeast 447 514 39,000  Level Kansas City Center
12:44PM 37.9967 -90.8353 124° Southeast 447 514 39,000  Level Kansas City Center
12:46PM 37.9278 -90.7069 124° Southeast 447 514 39,000  Level Kansas City Center
12:47PM 37.8581 -90.5781 124° Southeast 447 514 39,000  Level Kansas City Center
12:48PM 37.7894 -90.4517 124° Southeast 444 511 39,000 -360 Level Kansas City Center
12:49PM 37.7219 -90.3253 124° Southeast 442 509 38,300 -840 Descending Kansas City Center
12:50PM 37.6658 -90.1914 118° Southeast 439 505 37,300 -1,680 Descending Kansas City Center
12:51PM 37.6317 -90.0011 103° East 457 526 34,800 -1,740 Descending Kansas City Center
12:52PM 37.6028 -89.8414 103° East 464 534 33,800 -900 Descending Kansas City Center
12:53PM 37.5756 -89.6872 103° East 463 533 33,000 -420 Descending Kansas City Center
12:54PM 37.5481 -89.5386 103° East 452 520 33,000  Level Kansas City Center
12:55PM 37.5189 -89.3889 104° East 445 512 33,000  Level Kansas City Center
12:56PM 37.4875 -89.2131 103° East 437 503 33,000  Level Kansas City Center
12:57PM 37.4592 -89.0686 104° East 431 496 33,000  Level Kansas City Center
12:57PM 37.4475 -89.0122 105° East 429 494 33,000  Level Memphis Center
12:58PM 37.4144 -88.8356 103° East 428 493 33,000 -360 Level Memphis Center
12:59PM 37.3861 -88.6875 103° East 432 497 32,300 -840 Descending Memphis Center
01:00PM 37.3578 -88.5422 104° East 432 497 31,300 -1,020 Descending Memphis Center
01:02PM 37.3292 -88.3975 104° East 430 495 30,300 -960 Descending Memphis Center
01:03PM 37.3000 -88.2531 104° East 429 494 29,400 -960 Descending Memphis Center
01:04PM 37.2722 -88.1086 104° East 428 493 28,400 -1,020 Descending Memphis Center
01:05PM 37.2381 -87.9386 104° East 429 494 27,300 -1,020 Descending Memphis Center
01:06PM 37.1892 -87.8050 115° Southeast 420 483 26,300 -1,020 Descending Memphis Center
01:07PM 37.1269 -87.6881 124° Southeast 405 466 25,200 -1,020 Descending Memphis Center
01:08PM 37.0661 -87.5722 123° Southeast 398 458 24,200 -1,020 Descending Memphis Center
01:09PM 37.0053 -87.4556 123° Southeast 398 458 23,200 -1,020 Descending Memphis Center
01:10PM 36.9447 -87.3397 123° Southeast 398 458 22,200 -1,020 Descending Memphis Center
01:11PM 36.8847 -87.2253 123° Southeast 395 455 21,100 -1,620 Descending Memphis Center
01:12PM 36.8117 -87.0978 126° Southeast 386 444 18,900 -2,280 Descending Memphis Center
01:13PM 36.7194 -87.0386 153° Southeast 366 421 16,500 -2,460 Descending Memphis Center
01:14PM 36.6303 -86.9842 154° Southeast 362 417 13,900 -2,520 Descending Memphis Center
01:15PM 36.5425 -86.9303 154° Southeast 354 407 11,300 -1,440 Descending Memphis Center
01:16PM 36.4544 -86.8767 154° Southeast 351 404 11,000 -300 Descending Memphis Center
01:17PM 36.3736 -86.8272 154° Southeast 326 375 10,800 -1,020 Descending Memphis Center
01:18PM 36.2942 -86.7800 154° Southeast 308 354 8,900 -1,560 Descending Memphis Center
01:19PM 36.2169 -86.7569 166° South 299 344 7,600 -1,380 Descending Memphis Center
01:20PM 36.1422 -86.7864 198° South 285 328 6,100 -1,020 Descending Memphis Center
01:21PM 36.0733 -86.8119 197° South 264 304 5,600 -720 Descending Memphis Center
01:22PM 36.0139 -86.8361 198° South 235 270 4,700 -1,380 Descending Memphis Center
01:23PM 35.9761 -86.7631 123° Southeast 231 266 2,800 -1,080 Descending Memphis Center
01:24PM 36.0083 -86.7253 43° Northeast 180 207 2,500 -540 Descending Memphis Center
01:25PM 36.0528 -86.7081 17° North 173 199 1,700 -780 Descending Memphis Center
01:26PM 36.0911 -86.6922 18° North 156 180 900 -540 Descending Memphis Center
01:27PM 36.1289 -86.6775 17° North 154 177 700 -240 Descending Memphis Center
01:29PM 36.1245 -86.6782 224° Southwest  Level Estimated